Ashland, Oregon
Current Conditions -  °F | °C
As of 2:07 AM on Wednesday 26 Nov 2014 (Local Time) from KMFR Reporting Station
Overcast Overcast  
Wind Chill: 45°   Ceiling: 900
Heat Index: 45°   Visibility: 10mi
Dew Point: 43°   Wind: 0mph
Humidity: 93%   Direction: NA
Pressure: 30.36"   Gusts: NA
Location:  42.2°N, 122.71°W
Report Text: KMFR 261007Z AUTO 00000KT 10SM OVC009 07/06 A3036 RMK AO2 T00720061 $
Loading
Personal Weather Stations






























Interactive Weather Map New forecast layout! Learn more

10-Day Weather Forecast

Advertisements
Track Severe Weather on mobile